sensor_id;sensor_type;location;lat;lon;timestamp;P1;durP1;ratioP1;P2;durP2;ratioP2
75554;SDS011;66087;53.126;17.960;2023-07-28T00:00:12;6.30;;;4.00;;
75554;SDS011;66087;53.126;17.960;2023-07-28T00:03:01;9.20;;;4.10;;
75554;SDS011;66087;53.126;17.960;2023-07-28T00:05:27;7.40;;;3.60;;
75554;SDS011;66087;53.126;17.960;2023-07-28T00:07:57;6.70;;;3.70;;
75554;SDS011;66087;53.126;17.960;2023-07-28T00:10:28;6.70;;;3.80;;
75554;SDS011;66087;53.126;17.960;2023-07-28T00:13:04;9.30;;;3.70;;
75554;SDS011;66087;53.126;17.960;2023-07-28T00:15:30;7.40;;;3.70;;
75554;SDS011;66087;53.126;17.960;2023-07-28T00:17:58;6.40;;;3.90;;
75554;SDS011;66087;53.126;17.960;2023-07-28T00:20:26;7.90;;;3.70;;
75554;SDS011;66087;53.126;17.960;2023-07-28T00:22:52;5.30;;;2.80;;
75554;SDS011;66087;53.126;17.960;2023-07-28T00:25:41;6.10;;;3.30;;
75554;SDS011;66087;53.126;17.960;2023-07-28T00:28:10;7.10;;;3.70;;
75554;SDS011;66087;53.126;17.960;2023-07-28T00:30:36;5.30;;;3.00;;
75554;SDS011;66087;53.126;17.960;2023-07-28T00:33:03;6.90;;;3.10;;
75554;SDS011;66087;53.126;17.960;2023-07-28T00:35:30;6.70;;;3.70;;
75554;SDS011;66087;53.126;17.960;2023-07-28T00:37:57;7.80;;;3.30;;
75554;SDS011;66087;53.126;17.960;2023-07-28T00:40:24;6.90;;;3.40;;
75554;SDS011;66087;53.126;17.960;2023-07-28T00:42:54;5.60;;;3.10;;
75554;SDS011;66087;53.126;17.960;2023-07-28T00:45:23;6.20;;;3.70;;
75554;SDS011;66087;53.126;17.960;2023-07-28T00:47:50;6.50;;;3.60;;
75554;SDS011;66087;53.126;17.960;2023-07-28T00:50:29;5.80;;;3.70;;
75554;SDS011;66087;53.126;17.960;2023-07-28T00:52:56;7.30;;;3.30;;
75554;SDS011;66087;53.126;17.960;2023-07-28T00:55:26;8.20;;;4.00;;
75554;SDS011;66087;53.126;17.960;2023-07-28T00:57:52;6.90;;;3.50;;
75554;SDS011;66087;53.126;17.960;2023-07-28T01:00:26;5.70;;;3.00;;
75554;SDS011;66087;53.126;17.960;2023-07-28T01:02:55;6.50;;;3.70;;
75554;SDS011;66087;53.126;17.960;2023-07-28T01:05:25;7.30;;;4.10;;
75554;SDS011;66087;53.126;17.960;2023-07-28T01:08:01;6.90;;;4.00;;
75554;SDS011;66087;53.126;17.960;2023-07-28T01:10:32;6.40;;;3.90;;
75554;SDS011;66087;53.126;17.960;2023-07-28T01:13:07;7.00;;;3.90;;
75554;SDS011;66087;53.126;17.960;2023-07-28T01:15:39;7.00;;;4.10;;
75554;SDS011;66087;53.126;17.960;2023-07-28T01:18:05;9.40;;;4.40;;
75554;SDS011;66087;53.126;17.960;2023-07-28T01:20:37;7.40;;;4.30;;
75554;SDS011;66087;53.126;17.960;2023-07-28T01:26:05;7.30;;;4.00;;
75554;SDS011;66087;53.126;17.960;2023-07-28T01:28:35;6.10;;;3.70;;
75554;SDS011;66087;53.126;17.960;2023-07-28T01:31:03;6.80;;;4.50;;
75554;SDS011;66087;53.126;17.960;2023-07-28T01:33:31;7.30;;;4.00;;
75554;SDS011;66087;53.126;17.960;2023-07-28T01:36:02;6.30;;;3.70;;
75554;SDS011;66087;53.126;17.960;2023-07-28T01:38:33;7.50;;;3.80;;
75554;SDS011;66087;53.126;17.960;2023-07-28T01:40:59;7.30;;;4.10;;
75554;SDS011;66087;53.126;17.960;2023-07-28T01:43:30;6.40;;;3.60;;
75554;SDS011;66087;53.126;17.960;2023-07-28T01:46:05;8.00;;;4.10;;
75554;SDS011;66087;53.126;17.960;2023-07-28T01:48:35;6.20;;;3.80;;
75554;SDS011;66087;53.126;17.960;2023-07-28T01:51:01;8.20;;;4.00;;
75554;SDS011;66087;53.126;17.960;2023-07-28T01:53:28;6.50;;;3.30;;
75554;SDS011;66087;53.126;17.960;2023-07-28T01:55:56;7.80;;;4.70;;
75554;SDS011;66087;53.126;17.960;2023-07-28T01:58:23;6.70;;;4.20;;
75554;SDS011;66087;53.126;17.960;2023-07-28T02:00:51;7.60;;;4.00;;
75554;SDS011;66087;53.126;17.960;2023-07-28T02:03:17;6.80;;;3.70;;
75554;SDS011;66087;53.126;17.960;2023-07-28T02:05:45;7.80;;;4.30;;
75554;SDS011;66087;53.126;17.960;2023-07-28T02:08:17;6.60;;;3.90;;
75554;SDS011;66087;53.126;17.960;2023-07-28T02:10:44;6.80;;;4.10;;
75554;SDS011;66087;53.126;17.960;2023-07-28T02:13:15;6.70;;;4.00;;
75554;SDS011;66087;53.126;17.960;2023-07-28T02:15:41;7.50;;;4.60;;
75554;SDS011;66087;53.126;17.960;2023-07-28T02:18:10;8.30;;;4.40;;
75554;SDS011;66087;53.126;17.960;2023-07-28T02:20:44;7.50;;;5.00;;
75554;SDS011;66087;53.126;17.960;2023-07-28T02:23:13;9.00;;;4.80;;
75554;SDS011;66087;53.126;17.960;2023-07-28T02:25:44;5.90;;;3.40;;
75554;SDS011;66087;53.126;17.960;2023-07-28T02:28:10;7.40;;;4.10;;
75554;SDS011;66087;53.126;17.960;2023-07-28T02:30:38;7.50;;;4.20;;
75554;SDS011;66087;53.126;17.960;2023-07-28T02:33:06;7.40;;;4.80;;
75554;SDS011;66087;53.126;17.960;2023-07-28T02:35:36;7.80;;;4.70;;
75554;SDS011;66087;53.126;17.960;2023-07-28T02:38:06;7.10;;;4.30;;
75554;SDS011;66087;53.126;17.960;2023-07-28T02:40:33;6.90;;;3.70;;
75554;SDS011;66087;53.126;17.960;2023-07-28T02:43:03;6.10;;;3.60;;
75554;SDS011;66087;53.126;17.960;2023-07-28T02:45:30;8.50;;;5.60;;
75554;SDS011;66087;53.126;17.960;2023-07-28T02:48:01;8.00;;;5.00;;
75554;SDS011;66087;53.126;17.960;2023-07-28T02:50:30;8.00;;;5.30;;
75554;SDS011;66087;53.126;17.960;2023-07-28T02:52:59;8.30;;;3.90;;
75554;SDS011;66087;53.126;17.960;2023-07-28T02:55:25;7.70;;;4.90;;
75554;SDS011;66087;53.126;17.960;2023-07-28T02:57:59;8.10;;;5.00;;
75554;SDS011;66087;53.126;17.960;2023-07-28T03:00:26;8.10;;;5.20;;
75554;SDS011;66087;53.126;17.960;2023-07-28T03:03:06;7.40;;;4.40;;
75554;SDS011;66087;53.126;17.960;2023-07-28T03:05:34;8.70;;;5.00;;
75554;SDS011;66087;53.126;17.960;2023-07-28T03:08:11;9.80;;;5.60;;
75554;SDS011;66087;53.126;17.960;2023-07-28T03:10:38;8.80;;;5.10;;
75554;SDS011;66087;53.126;17.960;2023-07-28T03:13:05;8.70;;;5.70;;
75554;SDS011;66087;53.126;17.960;2023-07-28T03:15:31;8.10;;;5.00;;
75554;SDS011;66087;53.126;17.960;2023-07-28T03:18:03;10.30;;;5.30;;
75554;SDS011;66087;53.126;17.960;2023-07-28T03:20:33;7.50;;;4.20;;
75554;SDS011;66087;53.126;17.960;2023-07-28T03:23:02;7.40;;;4.80;;
75554;SDS011;66087;53.126;17.960;2023-07-28T03:25:32;7.60;;;4.90;;
75554;SDS011;66087;53.126;17.960;2023-07-28T03:28:00;9.70;;;4.20;;
75554;SDS011;66087;53.126;17.960;2023-07-28T03:30:27;7.60;;;4.00;;
75554;SDS011;66087;53.126;17.960;2023-07-28T03:32:53;8.80;;;5.30;;
75554;SDS011;66087;53.126;17.960;2023-07-28T03:35:23;8.00;;;5.20;;
75554;SDS011;66087;53.126;17.960;2023-07-28T03:38:02;10.20;;;5.50;;
75554;SDS011;66087;53.126;17.960;2023-07-28T03:40:29;9.30;;;4.40;;
75554;SDS011;66087;53.126;17.960;2023-07-28T03:42:56;8.70;;;4.70;;
75554;SDS011;66087;53.126;17.960;2023-07-28T03:45:23;12.50;;;5.40;;
75554;SDS011;66087;53.126;17.960;2023-07-28T03:47:50;7.60;;;4.70;;
75554;SDS011;66087;53.126;17.960;2023-07-28T03:50:22;8.00;;;4.80;;
75554;SDS011;66087;53.126;17.960;2023-07-28T03:52:50;8.10;;;5.00;;
75554;SDS011;66087;53.126;17.960;2023-07-28T03:55:23;7.50;;;4.30;;
75554;SDS011;66087;53.126;17.960;2023-07-28T03:57:50;6.80;;;4.00;;
75554;SDS011;66087;53.126;17.960;2023-07-28T04:00:21;8.50;;;4.80;;
75554;SDS011;66087;53.126;17.960;2023-07-28T04:02:51;7.80;;;4.90;;
75554;SDS011;66087;53.126;17.960;2023-07-28T04:05:18;9.60;;;5.10;;
75554;SDS011;66087;53.126;17.960;2023-07-28T04:08:00;7.80;;;4.50;;
75554;SDS011;66087;53.126;17.960;2023-07-28T04:10:26;9.00;;;5.10;;
75554;SDS011;66087;53.126;17.960;2023-07-28T04:12:53;8.30;;;4.90;;
75554;SDS011;66087;53.126;17.960;2023-07-28T04:15:20;6.70;;;4.50;;
75554;SDS011;66087;53.126;17.960;2023-07-28T04:17:46;7.10;;;4.20;;
75554;SDS011;66087;53.126;17.960;2023-07-28T04:20:16;8.00;;;4.70;;
75554;SDS011;66087;53.126;17.960;2023-07-28T04:22:42;7.40;;;4.40;;
75554;SDS011;66087;53.126;17.960;2023-07-28T04:25:12;7.60;;;4.60;;
75554;SDS011;66087;53.126;17.960;2023-07-28T04:27:46;8.20;;;3.70;;
75554;SDS011;66087;53.126;17.960;2023-07-28T04:30:12;7.90;;;3.90;;
75554;SDS011;66087;53.126;17.960;2023-07-28T04:32:44;7.20;;;3.90;;
75554;SDS011;66087;53.126;17.960;2023-07-28T04:35:16;6.30;;;3.80;;
75554;SDS011;66087;53.126;17.960;2023-07-28T04:37:53;6.60;;;3.90;;
75554;SDS011;66087;53.126;17.960;2023-07-28T04:40:32;6.70;;;3.80;;
75554;SDS011;66087;53.126;17.960;2023-07-28T04:43:00;5.40;;;2.70;;
75554;SDS011;66087;53.126;17.960;2023-07-28T04:45:28;6.00;;;3.30;;
75554;SDS011;66087;53.126;17.960;2023-07-28T04:47:58;6.30;;;2.60;;
75554;SDS011;66087;53.126;17.960;2023-07-28T04:50:29;6.20;;;3.50;;
75554;SDS011;66087;53.126;17.960;2023-07-28T04:53:06;7.00;;;3.40;;
75554;SDS011;66087;53.126;17.960;2023-07-28T04:55:48;6.20;;;3.10;;
75554;SDS011;66087;53.126;17.960;2023-07-28T04:58:14;6.90;;;3.30;;
75554;SDS011;66087;53.126;17.960;2023-07-28T05:00:46;7.10;;;3.50;;
75554;SDS011;66087;53.126;17.960;2023-07-28T05:03:14;6.20;;;3.70;;
75554;SDS011;66087;53.126;17.960;2023-07-28T05:05:47;6.40;;;2.70;;
75554;SDS011;66087;53.126;17.960;2023-07-28T05:08:14;6.30;;;3.40;;
75554;SDS011;66087;53.126;17.960;2023-07-28T05:10:43;6.30;;;3.40;;
75554;SDS011;66087;53.126;17.960;2023-07-28T05:13:14;5.30;;;3.00;;
75554;SDS011;66087;53.126;17.960;2023-07-28T05:15:47;7.00;;;3.30;;
75554;SDS011;66087;53.126;17.960;2023-07-28T05:18:20;6.70;;;3.50;;
75554;SDS011;66087;53.126;17.960;2023-07-28T05:21:07;5.70;;;2.60;;
75554;SDS011;66087;53.126;17.960;2023-07-28T05:23:41;5.00;;;2.50;;
75554;SDS011;66087;53.126;17.960;2023-07-28T05:26:12;5.70;;;3.30;;
75554;SDS011;66087;53.126;17.960;2023-07-28T05:28:39;7.30;;;3.30;;
75554;SDS011;66087;53.126;17.960;2023-07-28T05:31:07;5.50;;;2.70;;
75554;SDS011;66087;53.126;17.960;2023-07-28T05:33:35;7.80;;;3.60;;
75554;SDS011;66087;53.126;17.960;2023-07-28T05:36:05;6.60;;;3.10;;
75554;SDS011;66087;53.126;17.960;2023-07-28T05:38:47;6.30;;;3.20;;
75554;SDS011;66087;53.126;17.960;2023-07-28T05:41:13;7.30;;;3.90;;
75554;SDS011;66087;53.126;17.960;2023-07-28T05:43:45;6.90;;;3.80;;
75554;SDS011;66087;53.126;17.960;2023-07-28T05:46:12;6.70;;;3.80;;
75554;SDS011;66087;53.126;17.960;2023-07-28T05:48:41;7.60;;;3.60;;
75554;SDS011;66087;53.126;17.960;2023-07-28T05:51:08;7.90;;;4.20;;
75554;SDS011;66087;53.126;17.960;2023-07-28T05:53:35;7.50;;;4.90;;
75554;SDS011;66087;53.126;17.960;2023-07-28T05:56:05;8.40;;;4.40;;
75554;SDS011;66087;53.126;17.960;2023-07-28T05:58:32;6.00;;;3.30;;
75554;SDS011;66087;53.126;17.960;2023-07-28T06:01:00;8.40;;;3.90;;
75554;SDS011;66087;53.126;17.960;2023-07-28T06:03:45;8.70;;;4.90;;
75554;SDS011;66087;53.126;17.960;2023-07-28T06:06:19;6.90;;;3.80;;
75554;SDS011;66087;53.126;17.960;2023-07-28T06:08:45;7.90;;;4.20;;
75554;SDS011;66087;53.126;17.960;2023-07-28T06:11:12;8.90;;;3.90;;
75554;SDS011;66087;53.126;17.960;2023-07-28T06:13:38;9.80;;;4.70;;
75554;SDS011;66087;53.126;17.960;2023-07-28T06:16:13;7.10;;;4.10;;
75554;SDS011;66087;53.126;17.960;2023-07-28T06:18:44;8.00;;;4.10;;
75554;SDS011;66087;53.126;17.960;2023-07-28T06:21:14;7.10;;;3.90;;
75554;SDS011;66087;53.126;17.960;2023-07-28T06:23:41;7.20;;;3.90;;
75554;SDS011;66087;53.126;17.960;2023-07-28T06:26:08;6.60;;;3.70;;
75554;SDS011;66087;53.126;17.960;2023-07-28T06:28:38;6.80;;;3.30;;
75554;SDS011;66087;53.126;17.960;2023-07-28T06:31:05;10.30;;;4.60;;
75554;SDS011;66087;53.126;17.960;2023-07-28T06:33:32;8.60;;;4.70;;
75554;SDS011;66087;53.126;17.960;2023-07-28T06:35:58;8.10;;;4.60;;
75554;SDS011;66087;53.126;17.960;2023-07-28T06:38:28;7.00;;;3.40;;
75554;SDS011;66087;53.126;17.960;2023-07-28T06:40:56;8.20;;;4.50;;
75554;SDS011;66087;53.126;17.960;2023-07-28T06:43:23;8.20;;;4.70;;
75554;SDS011;66087;53.126;17.960;2023-07-28T06:45:52;8.60;;;4.70;;
75554;SDS011;66087;53.126;17.960;2023-07-28T06:48:20;8.70;;;4.20;;
75554;SDS011;66087;53.126;17.960;2023-07-28T06:50:47;7.70;;;4.50;;
75554;SDS011;66087;53.126;17.960;2023-07-28T06:53:13;7.70;;;4.20;;
75554;SDS011;66087;53.126;17.960;2023-07-28T06:55:44;7.90;;;4.10;;
75554;SDS011;66087;53.126;17.960;2023-07-28T06:58:26;8.50;;;4.60;;
75554;SDS011;66087;53.126;17.960;2023-07-28T07:00:52;6.10;;;3.80;;
75554;SDS011;66087;53.126;17.960;2023-07-28T07:03:24;6.80;;;3.10;;
75554;SDS011;66087;53.126;17.960;2023-07-28T07:05:53;7.20;;;3.30;;
75554;SDS011;66087;53.126;17.960;2023-07-28T07:08:23;6.50;;;3.30;;
75554;SDS011;66087;53.126;17.960;2023-07-28T07:10:53;5.50;;;2.80;;
75554;SDS011;66087;53.126;17.960;2023-07-28T07:13:20;6.40;;;2.50;;
75554;SDS011;66087;53.126;17.960;2023-07-28T07:15:48;3.40;;;1.30;;
75554;SDS011;66087;53.126;17.960;2023-07-28T07:18:15;3.30;;;1.80;;
75554;SDS011;66087;53.126;17.960;2023-07-28T07:20:43;4.80;;;2.60;;
75554;SDS011;66087;53.126;17.960;2023-07-28T07:23:11;3.40;;;1.90;;
75554;SDS011;66087;53.126;17.960;2023-07-28T07:25:39;4.10;;;2.10;;
75554;SDS011;66087;53.126;17.960;2023-07-28T07:28:08;3.90;;;2.20;;
75554;SDS011;66087;53.126;17.960;2023-07-28T07:30:37;4.00;;;2.50;;
75554;SDS011;66087;53.126;17.960;2023-07-28T07:33:06;4.70;;;2.60;;
75554;SDS011;66087;53.126;17.960;2023-07-28T07:35:35;3.90;;;1.80;;
75554;SDS011;66087;53.126;17.960;2023-07-28T07:38:04;4.40;;;2.30;;
75554;SDS011;66087;53.126;17.960;2023-07-28T07:40:37;7.70;;;2.70;;
75554;SDS011;66087;53.126;17.960;2023-07-28T07:43:04;4.90;;;2.30;;
75554;SDS011;66087;53.126;17.960;2023-07-28T07:45:31;4.60;;;2.90;;
75554;SDS011;66087;53.126;17.960;2023-07-28T07:47:59;5.60;;;3.30;;
75554;SDS011;66087;53.126;17.960;2023-07-28T07:50:25;4.40;;;2.60;;
75554;SDS011;66087;53.126;17.960;2023-07-28T07:52:56;4.30;;;2.50;;
75554;SDS011;66087;53.126;17.960;2023-07-28T07:55:23;5.30;;;3.00;;
75554;SDS011;66087;53.126;17.960;2023-07-28T07:57:49;4.60;;;2.70;;
75554;SDS011;66087;53.126;17.960;2023-07-28T08:00:19;4.90;;;2.90;;
75554;SDS011;66087;53.126;17.960;2023-07-28T08:02:46;5.70;;;3.30;;
75554;SDS011;66087;53.126;17.960;2023-07-28T08:05:17;5.70;;;3.20;;
75554;SDS011;66087;53.126;17.960;2023-07-28T08:07:44;5.10;;;3.00;;
75554;SDS011;66087;53.126;17.960;2023-07-28T08:10:11;4.80;;;2.90;;
75554;SDS011;66087;53.126;17.960;2023-07-28T08:12:38;5.40;;;3.20;;
75554;SDS011;66087;53.126;17.960;2023-07-28T08:15:04;6.10;;;3.70;;
75554;SDS011;66087;53.126;17.960;2023-07-28T08:17:49;6.00;;;3.40;;
75554;SDS011;66087;53.126;17.960;2023-07-28T08:20:17;5.90;;;3.50;;
75554;SDS011;66087;53.126;17.960;2023-07-28T08:22:44;5.80;;;3.60;;
75554;SDS011;66087;53.126;17.960;2023-07-28T08:25:12;6.80;;;3.90;;
75554;SDS011;66087;53.126;17.960;2023-07-28T08:27:41;6.20;;;3.80;;
75554;SDS011;66087;53.126;17.960;2023-07-28T08:30:08;6.30;;;3.90;;
75554;SDS011;66087;53.126;17.960;2023-07-28T08:32:35;5.50;;;3.60;;
75554;SDS011;66087;53.126;17.960;2023-07-28T08:35:10;6.80;;;3.80;;
75554;SDS011;66087;53.126;17.960;2023-07-28T08:37:37;5.90;;;3.80;;
75554;SDS011;66087;53.126;17.960;2023-07-28T08:40:08;5.60;;;3.50;;
75554;SDS011;66087;53.126;17.960;2023-07-28T08:42:36;6.00;;;3.60;;
75554;SDS011;66087;53.126;17.960;2023-07-28T08:45:04;5.60;;;3.40;;
75554;SDS011;66087;53.126;17.960;2023-07-28T08:47:35;7.90;;;3.90;;
75554;SDS011;66087;53.126;17.960;2023-07-28T08:50:03;5.90;;;4.20;;
75554;SDS011;66087;53.126;17.960;2023-07-28T08:52:32;5.60;;;3.50;;
75554;SDS011;66087;53.126;17.960;2023-07-28T08:54:59;5.60;;;3.60;;
75554;SDS011;66087;53.126;17.960;2023-07-28T08:57:36;6.00;;;3.90;;
75554;SDS011;66087;53.126;17.960;2023-07-28T09:00:37;5.70;;;3.70;;
75554;SDS011;66087;53.126;17.960;2023-07-28T09:03:04;5.90;;;3.40;;
75554;SDS011;66087;53.126;17.960;2023-07-28T09:05:43;5.80;;;3.70;;
75554;SDS011;66087;53.126;17.960;2023-07-28T09:08:25;5.10;;;3.30;;
75554;SDS011;66087;53.126;17.960;2023-07-28T09:11:10;6.40;;;4.30;;
75554;SDS011;66087;53.126;17.960;2023-07-28T09:13:40;5.50;;;3.90;;
75554;SDS011;66087;53.126;17.960;2023-07-28T09:16:16;5.90;;;3.90;;
75554;SDS011;66087;53.126;17.960;2023-07-28T09:18:44;6.20;;;3.40;;
75554;SDS011;66087;53.126;17.960;2023-07-28T09:21:16;4.50;;;3.00;;
75554;SDS011;66087;53.126;17.960;2023-07-28T09:23:47;5.30;;;3.00;;
75554;SDS011;66087;53.126;17.960;2023-07-28T09:26:16;4.90;;;2.60;;
75554;SDS011;66087;53.126;17.960;2023-07-28T09:28:44;4.20;;;2.80;;
75554;SDS011;66087;53.126;17.960;2023-07-28T09:31:15;3.80;;;2.30;;
75554;SDS011;66087;53.126;17.960;2023-07-28T09:33:54;3.80;;;2.00;;
75554;SDS011;66087;53.126;17.960;2023-07-28T09:36:21;4.60;;;3.00;;
75554;SDS011;66087;53.126;17.960;2023-07-28T09:38:55;4.60;;;3.10;;
75554;SDS011;66087;53.126;17.960;2023-07-28T09:41:25;4.60;;;3.20;;
75554;SDS011;66087;53.126;17.960;2023-07-28T09:43:55;5.00;;;3.00;;
75554;SDS011;66087;53.126;17.960;2023-07-28T09:46:28;5.20;;;3.30;;
75554;SDS011;66087;53.126;17.960;2023-07-28T09:48:57;4.60;;;2.60;;
75554;SDS011;66087;53.126;17.960;2023-07-28T09:51:31;4.70;;;3.30;;
75554;SDS011;66087;53.126;17.960;2023-07-28T09:54:03;5.70;;;3.20;;
75554;SDS011;66087;53.126;17.960;2023-07-28T09:56:32;5.40;;;3.00;;
75554;SDS011;66087;53.126;17.960;2023-07-28T09:59:01;4.70;;;2.80;;
75554;SDS011;66087;53.126;17.960;2023-07-28T10:01:34;4.30;;;3.00;;
75554;SDS011;66087;53.126;17.960;2023-07-28T10:04:05;4.70;;;2.90;;
75554;SDS011;66087;53.126;17.960;2023-07-28T10:06:33;5.10;;;3.20;;
75554;SDS011;66087;53.126;17.960;2023-07-28T10:09:00;4.30;;;2.70;;
75554;SDS011;66087;53.126;17.960;2023-07-28T10:11:27;5.00;;;2.40;;
75554;SDS011;66087;53.126;17.960;2023-07-28T10:13:55;3.60;;;2.30;;
75554;SDS011;66087;53.126;17.960;2023-07-28T10:19:05;4.40;;;2.60;;
75554;SDS011;66087;53.126;17.960;2023-07-28T10:21:32;4.30;;;2.90;;
75554;SDS011;66087;53.126;17.960;2023-07-28T10:24:10;3.50;;;2.00;;
75554;SDS011;66087;53.126;17.960;2023-07-28T10:26:38;3.90;;;2.70;;
75554;SDS011;66087;53.126;17.960;2023-07-28T10:29:09;4.50;;;2.60;;
75554;SDS011;66087;53.126;17.960;2023-07-28T10:31:37;3.40;;;2.20;;
75554;SDS011;66087;53.126;17.960;2023-07-28T10:34:17;4.00;;;1.80;;
75554;SDS011;66087;53.126;17.960;2023-07-28T10:36:56;3.20;;;1.90;;
75554;SDS011;66087;53.126;17.960;2023-07-28T10:39:27;3.30;;;1.70;;
75554;SDS011;66087;53.126;17.960;2023-07-28T10:42:00;3.60;;;2.30;;
75554;SDS011;66087;53.126;17.960;2023-07-28T10:44:31;3.70;;;2.40;;
75554;SDS011;66087;53.126;17.960;2023-07-28T10:46:59;3.60;;;2.30;;
75554;SDS011;66087;53.126;17.960;2023-07-28T10:49:26;3.90;;;1.90;;
75554;SDS011;66087;53.126;17.960;2023-07-28T10:51:54;3.20;;;2.30;;
75554;SDS011;66087;53.126;17.960;2023-07-28T10:54:26;3.20;;;2.40;;
75554;SDS011;66087;53.126;17.960;2023-07-28T10:56:53;4.00;;;2.30;;
75554;SDS011;66087;53.126;17.960;2023-07-28T10:59:20;3.70;;;2.20;;
75554;SDS011;66087;53.126;17.960;2023-07-28T11:01:51;3.60;;;2.10;;
75554;SDS011;66087;53.126;17.960;2023-07-28T11:04:19;3.10;;;2.20;;
75554;SDS011;66087;53.126;17.960;2023-07-28T11:06:50;4.00;;;2.70;;
75554;SDS011;66087;53.126;17.960;2023-07-28T11:09:18;3.50;;;2.40;;
75554;SDS011;66087;53.126;17.960;2023-07-28T11:11:48;2.90;;;2.00;;
75554;SDS011;66087;53.126;17.960;2023-07-28T11:14:16;2.70;;;1.60;;
75554;SDS011;66087;53.126;17.960;2023-07-28T11:16:44;3.30;;;2.30;;
75554;SDS011;66087;53.126;17.960;2023-07-28T11:19:12;3.10;;;1.90;;
75554;SDS011;66087;53.126;17.960;2023-07-28T11:21:41;4.20;;;2.20;;
75554;SDS011;66087;53.126;17.960;2023-07-28T11:24:10;2.50;;;1.50;;
75554;SDS011;66087;53.126;17.960;2023-07-28T11:26:38;3.90;;;2.20;;
75554;SDS011;66087;53.126;17.960;2023-07-28T11:29:07;3.10;;;1.90;;
75554;SDS011;66087;53.126;17.960;2023-07-28T11:31:38;3.20;;;2.10;;
75554;SDS011;66087;53.126;17.960;2023-07-28T11:34:16;4.10;;;3.00;;
75554;SDS011;66087;53.126;17.960;2023-07-28T11:36:50;2.80;;;1.90;;
75554;SDS011;66087;53.126;17.960;2023-07-28T11:39:17;3.50;;;2.40;;
75554;SDS011;66087;53.126;17.960;2023-07-28T11:41:49;3.40;;;2.50;;
75554;SDS011;66087;53.126;17.960;2023-07-28T11:44:20;3.60;;;2.30;;
75554;SDS011;66087;53.126;17.960;2023-07-28T11:46:48;4.00;;;2.60;;
75554;SDS011;66087;53.126;17.960;2023-07-28T11:49:30;3.90;;;2.60;;
75554;SDS011;66087;53.126;17.960;2023-07-28T11:51:59;3.50;;;2.40;;
75554;SDS011;66087;53.126;17.960;2023-07-28T11:54:33;4.00;;;2.00;;
75554;SDS011;66087;53.126;17.960;2023-07-28T11:57:00;4.50;;;2.40;;
75554;SDS011;66087;53.126;17.960;2023-07-28T11:59:26;3.50;;;2.40;;
75554;SDS011;66087;53.126;17.960;2023-07-28T12:01:56;4.20;;;2.40;;
75554;SDS011;66087;53.126;17.960;2023-07-28T12:04:25;3.90;;;2.30;;
75554;SDS011;66087;53.126;17.960;2023-07-28T12:09:49;5.10;;;2.40;;
75554;SDS011;66087;53.126;17.960;2023-07-28T12:12:19;3.90;;;2.60;;
75554;SDS011;66087;53.126;17.960;2023-07-28T12:14:47;4.70;;;2.00;;
75554;SDS011;66087;53.126;17.960;2023-07-28T12:17:20;4.70;;;2.70;;
75554;SDS011;66087;53.126;17.960;2023-07-28T12:19:59;4.10;;;2.50;;
75554;SDS011;66087;53.126;17.960;2023-07-28T12:22:38;5.20;;;2.50;;
75554;SDS011;66087;53.126;17.960;2023-07-28T12:25:12;6.40;;;3.10;;
75554;SDS011;66087;53.126;17.960;2023-07-28T12:27:39;4.50;;;2.40;;
75554;SDS011;66087;53.126;17.960;2023-07-28T12:30:06;4.60;;;2.60;;
75554;SDS011;66087;53.126;17.960;2023-07-28T12:32:35;5.50;;;2.70;;
75554;SDS011;66087;53.126;17.960;2023-07-28T12:35:22;3.30;;;2.00;;
75554;SDS011;66087;53.126;17.960;2023-07-28T12:37:50;3.70;;;2.60;;
75554;SDS011;66087;53.126;17.960;2023-07-28T12:40:19;3.50;;;2.10;;
75554;SDS011;66087;53.126;17.960;2023-07-28T12:42:50;3.80;;;2.10;;
75554;SDS011;66087;53.126;17.960;2023-07-28T12:45:17;3.10;;;1.80;;
75554;SDS011;66087;53.126;17.960;2023-07-28T12:47:44;4.70;;;2.70;;
75554;SDS011;66087;53.126;17.960;2023-07-28T12:50:10;4.60;;;2.70;;
75554;SDS011;66087;53.126;17.960;2023-07-28T12:52:37;4.70;;;2.70;;
75554;SDS011;66087;53.126;17.960;2023-07-28T12:55:04;3.40;;;2.20;;
75554;SDS011;66087;53.126;17.960;2023-07-28T12:57:32;3.40;;;2.10;;
75554;SDS011;66087;53.126;17.960;2023-07-28T13:00:03;2.90;;;1.70;;
75554;SDS011;66087;53.126;17.960;2023-07-28T13:02:43;3.10;;;1.70;;
75554;SDS011;66087;53.126;17.960;2023-07-28T13:05:12;3.00;;;1.80;;
75554;SDS011;66087;53.126;17.960;2023-07-28T13:07:39;2.90;;;1.60;;
75554;SDS011;66087;53.126;17.960;2023-07-28T13:10:16;2.70;;;1.70;;
75554;SDS011;66087;53.126;17.960;2023-07-28T13:12:44;3.50;;;1.70;;
75554;SDS011;66087;53.126;17.960;2023-07-28T13:15:14;2.50;;;1.90;;
75554;SDS011;66087;53.126;17.960;2023-07-28T13:17:40;2.90;;;2.10;;
75554;SDS011;66087;53.126;17.960;2023-07-28T13:20:11;3.80;;;3.00;;
75554;SDS011;66087;53.126;17.960;2023-07-28T13:22:38;3.20;;;1.90;;
75554;SDS011;66087;53.126;17.960;2023-07-28T13:25:06;3.00;;;2.30;;
75554;SDS011;66087;53.126;17.960;2023-07-28T13:27:33;4.00;;;2.80;;
75554;SDS011;66087;53.126;17.960;2023-07-28T13:30:05;3.00;;;2.70;;
75554;SDS011;66087;53.126;17.960;2023-07-28T13:32:37;3.40;;;2.50;;
75554;SDS011;66087;53.126;17.960;2023-07-28T13:35:03;2.80;;;2.40;;
75554;SDS011;66087;53.126;17.960;2023-07-28T13:37:31;3.00;;;2.70;;
75554;SDS011;66087;53.126;17.960;2023-07-28T13:39:57;2.50;;;2.10;;
75554;SDS011;66087;53.126;17.960;2023-07-28T13:42:24;2.40;;;2.10;;
75554;SDS011;66087;53.126;17.960;2023-07-28T13:44:50;3.70;;;2.50;;
75554;SDS011;66087;53.126;17.960;2023-07-28T13:47:17;2.10;;;1.50;;
75554;SDS011;66087;53.126;17.960;2023-07-28T13:49:47;2.60;;;2.10;;
75554;SDS011;66087;53.126;17.960;2023-07-28T13:52:13;2.90;;;2.60;;
75554;SDS011;66087;53.126;17.960;2023-07-28T13:54:48;4.00;;;2.40;;
75554;SDS011;66087;53.126;17.960;2023-07-28T13:57:15;4.40;;;2.90;;
75554;SDS011;66087;53.126;17.960;2023-07-28T13:59:49;3.50;;;2.30;;
75554;SDS011;66087;53.126;17.960;2023-07-28T14:02:17;3.10;;;2.60;;
75554;SDS011;66087;53.126;17.960;2023-07-28T14:04:45;2.10;;;1.60;;
75554;SDS011;66087;53.126;17.960;2023-07-28T14:07:24;2.50;;;1.60;;
75554;SDS011;66087;53.126;17.960;2023-07-28T14:09:50;1.90;;;1.40;;
75554;SDS011;66087;53.126;17.960;2023-07-28T14:12:24;2.20;;;1.40;;
75554;SDS011;66087;53.126;17.960;2023-07-28T14:14:53;1.70;;;1.30;;
75554;SDS011;66087;53.126;17.960;2023-07-28T14:17:20;2.20;;;1.40;;
75554;SDS011;66087;53.126;17.960;2023-07-28T14:19:50;2.90;;;1.40;;
75554;SDS011;66087;53.126;17.960;2023-07-28T14:22:16;2.10;;;1.70;;
75554;SDS011;66087;53.126;17.960;2023-07-28T14:24:43;3.40;;;1.50;;
75554;SDS011;66087;53.126;17.960;2023-07-28T14:27:09;2.20;;;1.50;;
75554;SDS011;66087;53.126;17.960;2023-07-28T14:29:37;2.10;;;1.60;;
75554;SDS011;66087;53.126;17.960;2023-07-28T14:32:08;2.00;;;1.40;;
75554;SDS011;66087;53.126;17.960;2023-07-28T14:34:34;2.30;;;2.10;;
75554;SDS011;66087;53.126;17.960;2023-07-28T14:37:03;1.90;;;1.20;;
75554;SDS011;66087;53.126;17.960;2023-07-28T14:39:32;1.50;;;1.10;;
75554;SDS011;66087;53.126;17.960;2023-07-28T14:41:59;2.30;;;1.30;;
75554;SDS011;66087;53.126;17.960;2023-07-28T14:44:29;2.20;;;1.00;;
75554;SDS011;66087;53.126;17.960;2023-07-28T14:46:58;1.60;;;1.10;;
75554;SDS011;66087;53.126;17.960;2023-07-28T14:49:25;1.70;;;1.10;;
75554;SDS011;66087;53.126;17.960;2023-07-28T14:51:55;2.10;;;1.40;;
75554;SDS011;66087;53.126;17.960;2023-07-28T14:54:21;1.70;;;1.20;;
75554;SDS011;66087;53.126;17.960;2023-07-28T14:56:48;3.10;;;2.30;;